Time;durP1;ratioP1;P1;durP2;ratioP2;P2;SDS_P1;SDS_P2;PMS_P1;PMS_P2;Temp;Humidity;BMP_temperature;BMP_pressure;BME280_temperature;BME280_humidity;BME280_pressure;Samples;Min_cycle;Max_cycle;Signal;HPM_P1;HPM_P2
2022/12/01 00:00:36;;;;;;;89.97;26.88;;;;;;;4.31;84.19;102217.78;5049197;28;20056;-66
2022/12/01 00:03:03;;;;;;;91.82;28.67;;;;;;;4.25;83.99;102233.38;5051151;28;20041;-66
2022/12/01 00:05:30;;;;;;;97.30;28.95;;;;;;;4.56;82.97;102226.34;5039889;28;20045;-66
2022/12/01 00:07:58;;;;;;;86.90;27.67;;;;;;;4.66;82.33;102217.66;5050355;27;20045;-66
2022/12/01 00:10:26;;;;;;;99.53;29.08;;;;;;;4.67;82.21;102220.25;5055814;27;20048;-66
2022/12/01 00:12:55;;;;;;;89.65;27.38;;;;;;;4.73;81.88;102217.63;5040694;28;20048;-67
2022/12/01 00:15:22;;;;;;;104.38;28.75;;;;;;;4.66;81.73;102212.47;5040801;28;20508;-67
2022/12/01 00:17:49;;;;;;;95.18;28.65;;;;;;;4.68;81.81;102206.41;5055250;28;20048;-67
2022/12/01 00:20:16;;;;;;;85.80;28.58;;;;;;;4.50;82.19;102208.22;5061080;28;20044;-67
2022/12/01 00:22:43;;;;;;;84.65;26.52;;;;;;;4.48;81.96;102208.19;5070564;28;20044;-67
2022/12/01 00:25:10;;;;;;;91.93;26.27;;;;;;;4.57;81.75;102208.19;5059076;28;20055;-67
2022/12/01 00:27:37;;;;;;;84.65;25.65;;;;;;;4.76;81.14;102211.56;5059670;28;20056;-66
2022/12/01 00:30:06;;;;;;;77.13;25.02;;;;;;;4.59;81.21;102206.44;5070432;28;20043;-67
2022/12/01 00:32:33;;;;;;;84.47;25.23;;;;;;;4.52;81.31;102204.72;5051478;28;20127;-67
2022/12/01 00:35:00;;;;;;;101.10;28.15;;;;;;;4.55;81.27;102209.91;5045105;28;20054;-67
2022/12/01 00:37:26;;;;;;;79.18;26.38;;;;;;;4.57;81.63;102204.72;5050470;28;20288;-67
2022/12/01 00:39:53;;;;;;;80.82;25.20;;;;;;;4.51;81.52;102202.16;5050599;28;20048;-67
2022/12/01 00:42:19;;;;;;;80.03;24.65;;;;;;;4.62;80.70;102208.19;5041028;28;20052;-66
2022/12/01 00:44:46;;;;;;;80.22;24.05;;;;;;;4.59;81.43;102215.94;5052694;28;20067;-66
2022/12/01 00:47:14;;;;;;;78.68;23.60;;;;;;;4.33;81.63;102219.50;5062412;28;20047;-66
2022/12/01 00:49:42;;;;;;;71.80;23.42;;;;;;;4.50;81.51;102216.88;5061160;28;20059;-66
2022/12/01 00:52:09;;;;;;;77.65;23.95;;;;;;;4.53;80.64;102223.78;5069971;28;20047;-66
2022/12/01 00:54:35;;;;;;;71.55;22.83;;;;;;;4.40;81.43;102218.63;5068137;28;20500;-66
2022/12/01 00:57:01;;;;;;;72.75;23.30;;;;;;;4.20;81.95;102227.34;5054190;28;20055;-66
2022/12/01 00:59:28;;;;;;;72.40;22.83;;;;;;;4.47;81.58;102226.41;5067446;28;20044;-66
2022/12/01 01:01:55;;;;;;;65.63;22.10;;;;;;;4.73;80.76;102220.22;5050312;28;20055;-66
2022/12/01 01:04:22;;;;;;;69.32;23.42;;;;;;;4.63;80.34;102233.25;5039858;28;20048;-67
2022/12/01 01:06:49;;;;;;;77.28;23.95;;;;;;;4.71;80.52;102221.13;5050561;28;20041;-67
2022/12/01 01:09:16;;;;;;;75.38;23.73;;;;;;;4.67;80.50;102229.78;5050552;28;20508;-67
2022/12/01 01:11:43;;;;;;;70.68;21.52;;;;;;;4.79;79.90;102224.53;5040620;28;20456;-67
2022/12/01 01:14:09;;;;;;;68.07;23.60;;;;;;;4.75;80.17;102223.69;5057428;27;20582;-67
2022/12/01 01:16:36;;;;;;;75.07;22.27;;;;;;;4.84;79.95;102231.44;5080780;27;20045;-67
2022/12/01 01:19:02;;;;;;;70.93;24.15;;;;;;;4.85;79.69;102227.97;5047088;28;20041;-67
2022/12/01 01:21:30;;;;;;;73.47;22.77;;;;;;;4.99;79.17;102229.66;5048615;28;20534;-67
2022/12/01 01:23:57;;;;;;;68.07;21.98;;;;;;;5.05;79.41;102232.22;5054103;28;20044;-67
2022/12/01 01:26:25;;;;;;;75.95;24.20;;;;;;;4.83;79.63;102237.53;5048120;28;20048;-67
2022/12/01 01:28:53;;;;;;;75.00;22.77;;;;;;;4.68;80.31;102240.19;5048094;28;20049;-67
2022/12/01 01:31:22;;;;;;;77.97;23.02;;;;;;;4.77;80.17;102237.53;5049410;28;20048;-66
2022/12/01 01:33:49;;;;;;;74.10;24.73;;;;;;;4.99;78.93;102237.47;5044859;28;20052;-66
2022/12/01 01:36:17;;;;;;;76.30;23.67;;;;;;;5.04;79.17;102240.88;5048373;28;20055;-66
2022/12/01 01:38:45;;;;;;;75.88;22.98;;;;;;;4.82;79.46;102243.59;5049888;28;20048;-66
2022/12/01 01:41:12;;;;;;;79.22;23.98;;;;;;;4.74;80.04;102234.94;5055330;28;20058;-67
2022/12/01 01:43:42;;;;;;;80.65;25.33;;;;;;;4.86;80.08;102240.09;5074675;28;20056;-67
2022/12/01 01:46:11;;;;;;;76.82;24.73;;;;;;;4.97;79.73;102242.66;5048053;28;20047;-67
2022/12/01 01:48:40;;;;;;;71.35;23.42;;;;;;;5.11;78.62;102237.38;5062557;28;20053;-67
2022/12/01 01:51:08;;;;;;;85.25;24.55;;;;;;;5.08;78.66;102237.41;5044148;28;20058;-67
2022/12/01 01:53:34;;;;;;;82.70;24.40;;;;;;;4.96;79.19;102229.66;5038433;28;20037;-67
2022/12/01 01:56:04;;;;;;;89.43;25.23;;;;;;;4.93;79.14;102250.47;5048184;28;20044;-67
2022/12/01 01:58:32;;;;;;;81.95;24.58;;;;;;;4.80;79.48;102249.69;5048168;28;20528;-67
2022/12/01 02:00:58;;;;;;;78.22;24.00;;;;;;;4.88;79.54;102246.16;5037671;28;20048;-67
2022/12/01 02:03:26;;;;;;;84.18;23.85;;;;;;;4.69;79.73;102249.69;5047114;28;20044;-67
2022/12/01 02:05:53;;;;;;;78.18;26.55;;;;;;;4.10;81.94;102243.78;5047711;28;20048;-67
2022/12/01 02:08:19;;;;;;;80.38;24.98;;;;;;;4.24;82.76;102248.09;5039231;28;20484;-67
2022/12/01 02:11:03;;;;;;;87.22;25.08;;;;;;;4.28;82.32;102246.34;5046246;28;20053;-67
2022/12/01 02:13:37;;;;;;;82.47;24.75;;;;;;;4.48;81.74;102230.72;5037882;28;20052;-67
2022/12/01 02:16:11;;;;;;;78.30;24.63;;;;;;;4.46;81.80;102232.47;5047205;28;20044;-67
2022/12/01 02:18:48;;;;;;;88.07;24.77;;;;;;;4.56;81.32;102231.56;5047784;28;20052;-67
2022/12/01 02:21:31;;;;;;;99.78;27.90;;;;;;;4.69;80.85;102236.69;5041339;28;20051;-67
2022/12/01 02:24:50;;;;;;;84.63;25.90;;;;;;;4.76;80.19;102225.44;5058120;28;20059;-66
2022/12/01 02:27:29;;;;;;;85.03;24.55;;;;;;;4.54;81.07;102241.97;5033873;28;20040;-67
2022/12/01 02:30:08;;;;;;;86.47;25.67;;;;;;;4.29;82.41;102235.09;5052377;28;20148;-66
2022/12/01 02:32:55;;;;;;;91.30;25.33;;;;;;;4.59;81.64;102231.53;5045282;28;20460;-66
2022/12/01 02:35:29;;;;;;;91.28;26.33;;;;;;;4.63;81.15;102230.66;5047831;28;20446;-66
2022/12/01 02:38:05;;;;;;;77.97;22.58;;;;;;;4.74;80.94;102236.69;5048354;28;20492;-67
2022/12/01 02:40:38;;;;;;;80.85;23.92;;;;;;;4.39;81.90;102239.41;5052062;28;20049;-67
2022/12/01 02:43:10;;;;;;;84.47;25.67;;;;;;;4.53;81.80;102241.97;5037678;28;20052;-67
2022/12/01 02:45:43;;;;;;;89.15;25.58;;;;;;;4.61;81.48;102241.06;5047495;28;20044;-67
2022/12/01 02:48:14;;;;;;;88.30;25.00;;;;;;;4.82;80.68;102246.19;5037998;28;20055;-67
2022/12/01 02:50:43;;;;;;;72.53;24.42;;;;;;;4.73;80.77;102248.81;5049226;28;20061;-67
2022/12/01 02:53:13;;;;;;;83.53;24.48;;;;;;;4.62;81.08;102239.34;5028165;28;20519;-67
2022/12/01 02:55:47;;;;;;;79.28;25.00;;;;;;;4.60;81.01;102241.06;5038161;28;20127;-67
2022/12/01 02:58:14;;;;;;;76.88;23.65;;;;;;;4.59;81.61;102248.00;5046515;28;20063;-66
2022/12/01 03:00:41;;;;;;;73.18;23.15;;;;;;;4.32;81.84;102240.28;5053649;28;20519;-66
2022/12/01 03:03:29;;;;;;;85.15;22.63;;;;;;;4.27;82.65;102244.63;5061830;28;20385;-66
2022/12/01 03:06:07;;;;;;;80.63;24.00;;;;;;;4.58;81.27;102240.22;5038386;28;20510;-66
2022/12/01 03:08:45;;;;;;;73.90;21.50;;;;;;;4.44;81.58;102242.84;5046563;28;20127;-66
2022/12/01 03:11:25;;;;;;;73.05;22.85;;;;;;;4.41;81.70;102237.66;5037426;28;20052;-66
2022/12/01 03:14:01;;;;;;;71.82;23.52;;;;;;;4.61;80.88;102238.47;5047172;28;20075;-66
2022/12/01 03:16:33;;;;;;;73.40;22.63;;;;;;;4.72;80.54;102241.91;5036625;28;20523;-66
2022/12/01 03:19:08;;;;;;;84.20;22.98;;;;;;;4.67;80.14;102243.66;5046494;28;20059;-66
2022/12/01 03:21:39;;;;;;;80.03;24.33;;;;;;;4.59;80.50;102249.72;5043381;28;20048;-66
2022/12/01 03:24:10;;;;;;;77.00;23.10;;;;;;;4.73;80.34;102248.81;5050728;28;20694;-66
2022/12/01 03:26:39;;;;;;;74.13;22.83;;;;;;;4.60;80.52;102244.53;5050167;28;20052;-66
2022/12/01 03:29:09;;;;;;;71.18;21.90;;;;;;;4.67;80.46;102241.03;5041304;28;20051;-66
2022/12/01 03:31:41;;;;;;;67.43;22.58;;;;;;;4.62;80.65;102245.38;5049828;28;20048;-66
2022/12/01 03:34:13;;;;;;;80.03;22.88;;;;;;;4.54;80.94;102244.56;5051751;28;20126;-66
2022/12/01 03:36:45;;;;;;;70.78;22.73;;;;;;;4.47;81.29;102244.59;5041382;28;20045;-67
2022/12/01 03:39:15;;;;;;;73.20;21.92;;;;;;;4.72;80.59;102241.03;5049611;28;20075;-66
2022/12/01 03:41:47;;;;;;;81.25;22.70;;;;;;;4.72;79.74;102243.63;5041249;28;20052;-66
2022/12/01 03:44:18;;;;;;;70.75;21.20;;;;;;;4.58;80.77;102240.22;5050573;28;20667;-66
2022/12/01 03:46:51;;;;;;;69.70;22.02;;;;;;;4.69;80.17;102244.50;5050348;28;20044;-67
2022/12/01 03:49:20;;;;;;;80.32;22.65;;;;;;;4.81;79.82;102244.44;5048164;28;20060;-66
2022/12/01 03:51:54;;;;;;;69.88;21.67;;;;;;;4.64;80.33;102248.84;5049642;28;20474;-66
2022/12/01 03:54:28;;;;;;;81.40;23.23;;;;;;;4.75;80.17;102238.41;5041017;28;20128;-66
2022/12/01 03:57:02;;;;;;;85.47;24.38;;;;;;;4.82;80.14;102246.19;5050313;28;20507;-66
2022/12/01 03:59:30;;;;;;;82.78;24.52;;;;;;;4.77;80.12;102241.88;5053228;28;20041;-66
2022/12/01 04:01:57;;;;;;;81.63;23.90;;;;;;;4.64;80.50;102240.19;5050553;28;20515;-66
2022/12/01 04:04:25;;;;;;;90.45;23.27;;;;;;;4.60;80.58;102235.88;5049728;28;20127;-66
2022/12/01 04:06:52;;;;;;;109.10;26.38;;;;;;;4.59;80.83;102237.59;5021299;28;20053;-66
2022/12/01 04:09:18;;;;;;;96.70;25.77;;;;;;;4.48;81.61;102239.38;5031016;28;20052;-66
2022/12/01 04:14:29;;;;;;;88.75;24.73;;;;;;;4.44;81.69;102232.44;5045084;28;20044;-66
2022/12/01 04:16:55;;;;;;;81.90;24.80;;;;;;;4.41;81.86;102237.66;5049399;28;20068;-66
2022/12/01 04:19:22;;;;;;;73.05;21.85;;;;;;;4.54;81.45;102235.91;5049973;28;20043;-66
2022/12/01 04:21:50;;;;;;;87.13;24.13;;;;;;;3.89;83.86;102242.06;5039541;28;20500;-67
2022/12/01 04:24:16;;;;;;;99.93;24.20;;;;;;;4.21;83.54;102242.06;5048997;28;20047;-66
2022/12/01 04:26:44;;;;;;;100.28;25.45;;;;;;;4.47;82.45;102242.00;5048995;28;20435;-67
2022/12/01 04:29:12;;;;;;;88.43;24.17;;;;;;;4.26;82.86;102242.88;5042811;28;20500;-66
2022/12/01 04:31:38;;;;;;;94.88;25.13;;;;;;;4.47;82.64;102248.06;5049197;28;20052;-66
2022/12/01 04:34:05;;;;;;;94.43;25.30;;;;;;;4.58;81.65;102245.41;5049417;28;20052;-66
2022/12/01 04:36:34;;;;;;;90.95;25.48;;;;;;;4.63;81.18;102246.25;5047890;28;20057;-66
2022/12/01 04:39:03;;;;;;;97.22;25.25;;;;;;;4.58;81.59;102256.66;5048973;28;20048;-66
2022/12/01 04:41:29;;;;;;;89.55;25.95;;;;;;;4.30;82.51;102255.88;5047941;28;20050;-66
2022/12/01 04:43:56;;;;;;;92.72;25.85;;;;;;;4.56;81.72;102249.75;5056992;28;20076;-66
2022/12/01 04:46:23;;;;;;;84.60;24.67;;;;;;;4.60;81.81;102249.72;5048423;28;20049;-66
2022/12/01 04:48:49;;;;;;;83.95;24.08;;;;;;;4.45;82.16;102247.19;5026251;28;20048;-66
2022/12/01 04:51:16;;;;;;;88.47;24.17;;;;;;;4.12;83.10;102249.84;5042844;28;20055;-66
2022/12/01 04:53:43;;;;;;;95.25;24.67;;;;;;;4.16;83.28;102254.16;5049255;28;20053;-66
2022/12/01 04:56:10;;;;;;;98.05;26.30;;;;;;;3.94;83.94;102255.91;5049855;28;20117;-66
2022/12/01 04:58:37;;;;;;;107.95;26.05;;;;;;;3.75;85.27;102241.19;5017941;28;20056;-66
2022/12/01 05:01:06;;;;;;;96.88;24.83;;;;;;;4.05;84.58;102253.31;5029574;28;20523;-66
2022/12/01 05:03:37;;;;;;;90.38;24.20;;;;;;;4.26;83.78;102248.06;5019951;28;20041;-66
2022/12/01 05:06:05;;;;;;;90.47;24.50;;;;;;;4.26;83.23;102248.06;5044334;28;20169;-66
2022/12/01 05:08:33;;;;;;;85.78;24.70;;;;;;;4.17;83.74;102255.91;5032483;28;20055;-66
2022/12/01 05:11:00;;;;;;;97.95;26.05;;;;;;;4.00;84.32;102249.84;5039676;28;20051;-66
2022/12/01 05:13:28;;;;;;;97.90;25.20;;;;;;;3.85;85.74;102251.56;5048981;28;20055;-66
2022/12/01 05:16:04;;;;;;;111.28;26.02;;;;;;;3.90;85.47;102255.06;5048552;28;20044;-66
2022/12/01 05:18:30;;;;;;;103.95;28.58;;;;;;;3.60;86.48;102254.16;5038893;28;20044;-66
2022/12/01 05:20:56;;;;;;;94.97;25.70;;;;;;;3.81;85.56;102255.03;5047803;28;20048;-66
2022/12/01 05:23:23;;;;;;;107.15;25.85;;;;;;;3.70;86.46;102261.06;5049336;28;20411;-66
2022/12/01 05:25:49;;;;;;;107.22;25.95;;;;;;;4.02;85.45;102267.16;5034359;28;20053;-66
2022/12/01 05:28:16;;;;;;;112.75;27.33;;;;;;;4.13;84.94;102265.41;5047830;28;20045;-66
2022/12/01 05:30:44;;;;;;;95.80;26.23;;;;;;;4.43;83.74;102271.44;5048247;28;20044;-66
2022/12/01 05:33:10;;;;;;;121.38;26.80;;;;;;;4.61;83.23;102269.66;5039342;28;20048;-66
2022/12/01 05:35:37;;;;;;;91.78;26.63;;;;;;;4.74;82.08;102276.53;5048394;28;20512;-66
2022/12/01 05:38:04;;;;;;;91.60;26.00;;;;;;;4.63;82.11;102267.91;5049260;28;20048;-66
2022/12/01 05:40:30;;;;;;;95.88;25.27;;;;;;;4.46;82.51;102277.47;5038269;28;20036;-66
2022/12/01 05:42:57;;;;;;;104.63;25.05;;;;;;;4.47;82.19;102287.00;5048304;28;20037;-66
2022/12/01 05:45:24;;;;;;;96.38;26.77;;;;;;;4.60;81.71;102283.50;5048452;28;20052;-66
2022/12/01 05:47:55;;;;;;;97.00;24.95;;;;;;;4.63;81.50;102283.50;5038708;28;20053;-66
2022/12/01 05:50:22;;;;;;;85.57;24.27;;;;;;;4.55;81.91;102284.38;5047185;28;20564;-66
2022/12/01 05:52:48;;;;;;;76.07;21.55;;;;;;;4.47;81.81;102287.00;5048966;28;20048;-66
2022/12/01 05:55:15;;;;;;;88.03;23.27;;;;;;;4.17;83.22;102285.31;5038246;28;20044;-66
2022/12/01 05:57:42;;;;;;;93.47;25.35;;;;;;;4.17;83.11;102284.44;5047271;28;20535;-65
2022/12/01 06:00:10;;;;;;;91.35;24.67;;;;;;;4.03;83.98;102296.59;5048233;28;20055;-65
2022/12/01 06:02:37;;;;;;;87.05;24.15;;;;;;;4.23;83.61;102285.31;5042469;28;20158;-65
2022/12/01 06:05:06;;;;;;;90.03;25.77;;;;;;;4.27;83.25;102289.63;5075074;28;20055;-65
2022/12/01 06:07:34;;;;;;;83.45;22.95;;;;;;;4.43;82.64;102290.47;5048077;28;20044;-65
2022/12/01 06:10:01;;;;;;;92.28;24.25;;;;;;;4.56;81.87;102294.78;5044320;28;20052;-65
2022/12/01 06:12:28;;;;;;;78.90;23.17;;;;;;;4.49;81.35;102297.38;5047072;28;20056;-65
2022/12/01 06:14:55;;;;;;;85.40;24.48;;;;;;;4.45;82.09;102304.31;5048278;28;20493;-66
2022/12/01 06:17:21;;;;;;;81.80;21.80;;;;;;;4.37;82.54;102303.44;5042101;28;20036;-66
2022/12/01 06:19:48;;;;;;;90.43;24.35;;;;;;;4.59;81.49;102294.75;5047396;28;20095;-66
2022/12/01 06:22:15;;;;;;;71.57;23.00;;;;;;;4.77;80.61;102296.44;5047784;28;20044;-66
2022/12/01 06:24:42;;;;;;;74.93;21.85;;;;;;;4.64;81.03;102295.63;5043050;28;20131;-66
2022/12/01 06:27:08;;;;;;;83.25;24.40;;;;;;;4.69;80.93;102298.22;5046886;28;20044;-66
2022/12/01 06:29:35;;;;;;;86.00;23.63;;;;;;;4.76;80.17;102302.53;5048220;28;20401;-66
2022/12/01 06:32:01;;;;;;;72.35;22.67;;;;;;;4.51;80.75;102291.31;5037250;28;20523;-66
2022/12/01 06:34:27;;;;;;;73.90;21.55;;;;;;;4.59;80.44;102301.69;5046862;28;20037;-67
2022/12/01 06:36:54;;;;;;;78.03;22.67;;;;;;;4.59;80.58;102307.75;5047666;28;20041;-66
2022/12/01 06:39:22;;;;;;;78.40;22.98;;;;;;;4.72;80.56;102306.00;5037035;28;20071;-66
2022/12/01 06:41:48;;;;;;;84.13;23.70;;;;;;;4.79;79.85;102310.31;5046040;28;20045;-66
2022/12/01 06:44:15;;;;;;;82.25;22.10;;;;;;;4.43;80.79;102313.84;5048008;28;20219;-66
2022/12/01 06:46:41;;;;;;;71.45;21.80;;;;;;;4.53;81.09;102320.75;5029782;28;20044;-66
2022/12/01 06:49:11;;;;;;;75.70;22.83;;;;;;;4.77;79.90;102317.22;5037629;28;20524;-66
2022/12/01 06:51:37;;;;;;;67.40;20.27;;;;;;;4.07;81.94;102324.25;5027517;28;20076;-66
2022/12/01 06:54:04;;;;;;;99.07;25.05;;;;;;;4.12;82.19;102319.91;5023890;28;20051;-66
2022/12/01 06:56:32;;;;;;;84.07;27.35;;;;;;;4.21;82.12;102322.53;5039367;28;20048;-66
2022/12/01 06:58:58;;;;;;;88.40;26.70;;;;;;;4.27;81.99;102322.50;5027385;28;20048;-65
2022/12/01 07:01:25;;;;;;;119.68;38.55;;;;;;;4.40;81.19;102326.81;5035872;27;20045;-65
2022/12/01 07:03:51;;;;;;;113.40;37.05;;;;;;;4.56;81.07;102320.75;5047450;28;20480;-65
2022/12/01 07:06:18;;;;;;;140.23;40.60;;;;;;;4.37;80.84;102325.09;5047889;28;20048;-65
2022/12/01 07:08:44;;;;;;;113.25;34.78;;;;;;;4.30;81.86;102328.56;5037144;28;20052;-65
2022/12/01 07:11:12;;;;;;;126.88;36.13;;;;;;;4.58;80.82;102333.75;5045935;28;20055;-65
2022/12/01 07:13:43;;;;;;;128.55;43.50;;;;;;;4.64;80.36;102341.50;5047399;28;20087;-66
2022/12/01 07:16:10;;;;;;;129.25;39.40;;;;;;;4.67;80.47;102334.59;5055205;28;25552;-66
2022/12/01 07:18:37;;;;;;;93.25;28.77;;;;;;;4.60;80.77;102345.84;5047613;28;20052;-66
2022/12/01 07:21:07;;;;;;;88.72;26.80;;;;;;;4.33;81.71;102338.94;5046069;28;20044;-66
2022/12/01 07:23:34;;;;;;;93.10;28.38;;;;;;;4.34;82.26;102339.81;5037011;28;20055;-66
2022/12/01 07:26:01;;;;;;;84.82;25.15;;;;;;;4.53;81.63;102331.16;5054401;28;20041;-66
2022/12/01 07:28:28;;;;;;;87.43;26.80;;;;;;;4.80;79.95;102344.06;5040409;28;20056;-66
2022/12/01 07:31:01;;;;;;;95.45;27.20;;;;;;;4.64;80.28;102339.78;5069946;27;20052;-66
2022/12/01 07:33:27;;;;;;;88.80;24.25;;;;;;;4.37;81.49;102339.81;5055232;28;20505;-66
2022/12/01 07:35:54;;;;;;;89.18;23.02;;;;;;;4.31;81.83;102339.81;5036483;28;20063;-66
2022/12/01 07:38:20;;;;;;;83.93;26.48;;;;;;;4.37;81.56;102340.69;5046770;28;20440;-66
2022/12/01 07:40:46;;;;;;;85.82;24.30;;;;;;;4.19;82.56;102338.09;5046240;28;20415;-66
2022/12/01 07:43:13;;;;;;;78.40;24.88;;;;;;;4.33;82.16;102343.28;5037307;28;20052;-66
2022/12/01 07:45:39;;;;;;;92.10;25.25;;;;;;;4.17;82.80;102337.25;5055586;28;20051;-66
2022/12/01 07:48:07;;;;;;;84.40;23.75;;;;;;;4.02;83.55;102347.63;5057826;28;20048;-66
2022/12/01 07:50:34;;;;;;;83.47;23.67;;;;;;;4.08;82.95;102354.53;5035851;28;20044;-66
2022/12/01 07:53:00;;;;;;;73.93;23.33;;;;;;;4.06;83.05;102357.16;5046334;28;20086;-66
2022/12/01 07:55:26;;;;;;;90.20;24.77;;;;;;;4.30;82.19;102356.25;5058496;28;20055;-66
2022/12/01 07:57:53;;;;;;;98.75;26.58;;;;;;;4.35;81.95;102346.75;5036891;28;20049;-66
2022/12/01 08:00:20;;;;;;;87.93;24.13;;;;;;;4.47;81.47;102351.06;5046583;28;20048;-66
2022/12/01 08:02:48;;;;;;;83.30;25.45;;;;;;;4.35;82.35;102352.81;5044508;28;20051;-66
2022/12/01 08:05:16;;;;;;;92.10;25.20;;;;;;;4.38;81.68;102351.94;5037375;28;20523;-66
2022/12/01 08:07:42;;;;;;;88.18;24.45;;;;;;;4.64;80.86;102349.31;5046300;28;20055;-66
2022/12/01 08:10:09;;;;;;;84.95;25.25;;;;;;;4.56;81.34;102351.91;5047113;28;20051;-66
2022/12/01 08:12:35;;;;;;;87.13;23.92;;;;;;;4.70;80.91;102360.56;5040028;28;20044;-66
2022/12/01 08:15:02;;;;;;;88.47;23.80;;;;;;;4.68;81.29;102357.09;5048841;28;20056;-66
2022/12/01 08:17:28;;;;;;;86.68;23.65;;;;;;;4.77;80.81;102341.47;5049120;28;20037;-66
2022/12/01 08:19:55;;;;;;;86.85;22.05;;;;;;;4.85;80.09;102349.25;5042778;28;20048;-66
2022/12/01 08:22:23;;;;;;;89.97;24.88;;;;;;;4.70;79.91;102341.50;5050102;28;20465;-66
2022/12/01 08:24:49;;;;;;;78.30;24.10;;;;;;;4.61;80.28;102346.72;5049719;28;20045;-66
2022/12/01 08:27:16;;;;;;;80.57;23.98;;;;;;;4.39;81.88;102351.94;5044230;28;20652;-66
2022/12/01 08:29:42;;;;;;;79.95;22.13;;;;;;;4.17;82.54;102352.81;5050250;28;20064;-66
2022/12/01 08:32:08;;;;;;;88.03;22.98;;;;;;;4.35;82.16;102346.75;5048712;28;20044;-66
2022/12/01 08:34:36;;;;;;;97.55;24.70;;;;;;;4.38;81.58;102350.22;5050726;28;20051;-66
2022/12/01 08:37:02;;;;;;;91.25;24.33;;;;;;;3.93;83.83;102358.84;5047307;28;20515;-66
2022/12/01 08:39:30;;;;;;;78.53;23.63;;;;;;;3.87;83.98;102368.34;5060151;28;20515;-66
2022/12/01 08:41:56;;;;;;;84.22;21.80;;;;;;;4.18;83.02;102361.44;5052225;28;20451;-66
2022/12/01 08:44:23;;;;;;;87.53;22.75;;;;;;;4.34;82.25;102358.00;5040836;28;20063;-66
2022/12/01 08:46:49;;;;;;;86.30;23.38;;;;;;;3.77;84.76;102364.88;5047661;28;20048;-66
2022/12/01 08:49:16;;;;;;;80.25;23.58;;;;;;;3.92;83.57;102372.69;5029225;28;20045;-66
2022/12/01 08:51:42;;;;;;;82.82;23.40;;;;;;;4.12;83.36;102362.31;5019723;28;20060;-66
2022/12/01 08:54:11;;;;;;;83.93;24.67;;;;;;;4.30;82.07;102366.66;5042438;28;20048;-66
2022/12/01 08:56:40;;;;;;;65.13;19.38;;;;;;;4.35;81.79;102364.94;5050486;27;20578;-66
2022/12/01 08:59:07;;;;;;;73.70;21.92;;;;;;;4.47;81.24;102367.53;5048770;27;20203;-66
2022/12/01 09:01:34;;;;;;;70.72;21.27;;;;;;;4.28;81.65;102361.47;5048752;28;20047;-66
2022/12/01 09:04:06;;;;;;;85.65;22.05;;;;;;;4.16;82.24;102368.38;5046442;28;20044;-66
2022/12/01 09:06:34;;;;;;;81.97;22.55;;;;;;;4.00;83.69;102367.50;5049153;28;20056;-66
2022/12/01 09:09:01;;;;;;;64.07;21.05;;;;;;;4.27;82.55;102364.06;5061713;28;20048;-66
2022/12/01 09:11:28;;;;;;;67.35;20.45;;;;;;;3.95;82.99;102373.56;5040796;27;20047;-66
2022/12/01 09:13:56;;;;;;;71.40;19.88;;;;;;;3.80;84.61;102371.81;5049982;27;20048;-66
2022/12/01 09:16:22;;;;;;;82.35;23.15;;;;;;;4.10;83.61;102381.38;5069626;28;20043;-66
2022/12/01 09:18:49;;;;;;;72.68;21.67;;;;;;;4.56;81.49;102369.22;5056680;27;20051;-66
2022/12/01 09:21:17;;;;;;;78.10;22.48;;;;;;;4.07;82.46;102377.03;5048929;28;20400;-66
2022/12/01 09:23:44;;;;;;;81.15;22.50;;;;;;;4.26;82.28;102373.56;5053677;28;20519;-66
2022/12/01 09:26:10;;;;;;;98.78;26.00;;;;;;;4.63;81.96;102370.94;5041869;28;20702;-66
2022/12/01 09:28:37;;;;;;;95.88;24.77;;;;;;;4.88;81.14;102372.63;5061229;28;20200;-66
2022/12/01 09:31:06;;;;;;;99.55;25.20;;;;;;;5.13;80.73;102368.25;5052042;28;20044;-66
2022/12/01 09:33:33;;;;;;;116.38;28.38;;;;;;;5.10;80.52;102370.88;5039685;27;20052;-66
2022/12/01 09:35:59;;;;;;;103.25;26.27;;;;;;;5.23;80.20;102367.34;5049987;27;20068;-66
2022/12/01 09:38:26;;;;;;;108.43;26.85;;;;;;;5.29;79.62;102364.69;5049157;27;20036;-66
2022/12/01 09:40:52;;;;;;;103.07;27.45;;;;;;;5.24;79.71;102364.75;5039528;27;20064;-66
2022/12/01 09:43:23;;;;;;;109.97;27.08;;;;;;;5.32;79.57;102359.50;5048342;28;20408;-66
2022/12/01 09:45:54;;;;;;;107.60;27.23;;;;;;;5.24;79.29;102358.69;5052653;28;20410;-66
2022/12/01 09:48:29;;;;;;;100.45;25.63;;;;;;;5.23;79.79;102359.53;5043187;27;20052;-66
2022/12/01 09:50:55;;;;;;;109.18;27.13;;;;;;;5.37;79.29;102352.53;5046813;27;20071;-66
2022/12/01 09:53:25;;;;;;;107.25;27.98;;;;;;;5.34;78.57;102357.75;5045305;28;20562;-66
2022/12/01 09:55:52;;;;;;;99.18;26.30;;;;;;;5.26;79.15;102356.91;5047225;28;20041;-66
2022/12/01 09:58:24;;;;;;;97.60;24.50;;;;;;;5.24;78.82;102348.28;5047412;28;20488;-66
2022/12/01 10:00:52;;;;;;;115.60;27.48;;;;;;;5.12;79.64;102354.38;5038102;28;20048;-66
2022/12/01 10:03:31;;;;;;;95.35;25.20;;;;;;;4.89;80.59;102354.44;5048773;28;20050;-66
2022/12/01 10:06:02;;;;;;;86.65;25.58;;;;;;;5.04;80.06;102350.06;5050016;28;20036;-66
2022/12/01 10:08:31;;;;;;;106.00;28.27;;;;;;;5.02;80.14;102350.09;5053717;28;20052;-66
2022/12/01 10:11:06;;;;;;;85.10;25.50;;;;;;;4.59;81.22;102353.63;5051825;28;20044;-66
2022/12/01 10:13:33;;;;;;;99.68;26.55;;;;;;;4.67;81.30;102357.09;5070213;27;20043;-66
2022/12/01 10:16:08;;;;;;;94.20;23.98;;;;;;;4.72;81.03;102351.03;5072439;27;20485;-66
2022/12/01 10:18:48;;;;;;;98.80;25.92;;;;;;;4.92;80.53;102353.56;5051330;28;20048;-66
2022/12/01 10:21:23;;;;;;;90.63;24.67;;;;;;;4.86;80.05;102356.19;5056228;28;20094;-66
2022/12/01 10:24:07;;;;;;;94.93;25.88;;;;;;;4.69;80.94;102348.41;5047563;28;20059;-66
2022/12/01 10:26:44;;;;;;;97.40;24.50;;;;;;;4.83;80.74;102351.88;5061422;28;20468;-66
2022/12/01 10:29:13;;;;;;;107.80;25.77;;;;;;;5.04;79.75;102350.06;5053236;28;20424;-66
2022/12/01 10:31:51;;;;;;;107.97;24.52;;;;;;;4.52;81.96;102352.78;5068679;28;20052;-66
2022/12/01 10:34:22;;;;;;;85.85;23.38;;;;;;;4.84;80.21;102345.78;5062529;28;20511;-66
2022/12/01 10:36:48;;;;;;;76.25;20.95;;;;;;;4.90;80.21;102345.78;5047397;28;20041;-66
2022/12/01 10:39:19;;;;;;;71.88;21.77;;;;;;;5.08;79.63;102351.78;5046127;28;20056;-66
2022/12/01 10:41:48;;;;;;;73.78;21.15;;;;;;;5.01;79.41;102337.97;5038526;28;20149;-66
2022/12/01 10:44:17;;;;;;;78.13;21.48;;;;;;;4.97;79.57;102337.97;5048379;28;20044;-66
2022/12/01 10:46:46;;;;;;;66.78;20.10;;;;;;;5.04;78.75;102332.75;5055192;28;20518;-66
2022/12/01 10:49:15;;;;;;;59.28;18.85;;;;;;;4.51;80.39;102332.03;5039420;28;20496;-67
2022/12/01 10:51:55;;;;;;;66.35;20.67;;;;;;;4.81;79.58;102332.81;5046827;28;20723;-66
2022/12/01 10:54:24;;;;;;;63.47;18.73;;;;;;;4.90;79.03;102332.78;5037282;28;20496;-66
2022/12/01 10:56:56;;;;;;;60.30;18.73;;;;;;;4.68;79.92;102325.06;5047663;28;20044;-66
2022/12/01 10:59:28;;;;;;;60.78;19.90;;;;;;;4.89;79.46;102331.06;5047903;28;20060;-66
2022/12/01 11:01:56;;;;;;;79.78;21.17;;;;;;;4.97;78.64;102331.03;5037205;28;20064;-66
2022/12/01 11:04:34;;;;;;;73.07;22.42;;;;;;;5.05;77.92;102328.41;5046260;28;20059;-66
2022/12/01 11:07:02;;;;;;;66.50;20.30;;;;;;;5.04;78.30;102324.06;5037660;28;20037;-66
2022/12/01 11:09:30;;;;;;;68.22;19.08;;;;;;;5.28;77.35;102331.78;5046914;28;20056;-66
2022/12/01 11:11:59;;;;;;;60.58;19.23;;;;;;;5.35;77.48;102328.28;5047958;28;20451;-66
2022/12/01 11:14:36;;;;;;;69.60;19.67;;;;;;;5.58;76.23;102326.41;5036642;28;20060;-66
2022/12/01 11:17:16;;;;;;;58.70;20.45;;;;;;;5.66;75.72;102326.34;5061202;28;20055;-66
2022/12/01 11:19:42;;;;;;;62.65;20.63;;;;;;;5.75;75.58;102327.19;5038149;28;20053;-66
2022/12/01 11:22:20;;;;;;;66.15;20.80;;;;;;;5.66;75.96;102318.53;5046805;28;20044;-66
2022/12/01 11:24:59;;;;;;;70.03;21.95;;;;;;;5.72;75.97;102319.41;5037760;27;20049;-66
2022/12/01 11:27:28;;;;;;;74.72;22.15;;;;;;;5.66;75.75;102314.22;5047721;27;20052;-67